sensor_id;sensor_type;location;lat;lon;timestamp;P1;durP1;ratioP1;P2;durP2;ratioP2
42134;SDS011;28312;43.460;11.810;2024-02-15T00:01:25;5.05;;;3.38;;
42134;SDS011;28312;43.460;11.810;2024-02-15T00:05:29;3.70;;;2.78;;
42134;SDS011;28312;43.460;11.810;2024-02-15T00:09:32;5.20;;;3.05;;
42134;SDS011;28312;43.460;11.810;2024-02-15T00:13:36;5.32;;;3.50;;
42134;SDS011;28312;43.460;11.810;2024-02-15T00:17:40;4.43;;;3.40;;
42134;SDS011;28312;43.460;11.810;2024-02-15T00:21:45;3.92;;;2.72;;
42134;SDS011;28312;43.460;11.810;2024-02-15T00:25:49;3.60;;;3.20;;
42134;SDS011;28312;43.460;11.810;2024-02-15T00:29:52;5.32;;;3.28;;
42134;SDS011;28312;43.460;11.810;2024-02-15T00:33:56;5.53;;;3.50;;
42134;SDS011;28312;43.460;11.810;2024-02-15T00:38:00;4.10;;;3.20;;
42134;SDS011;28312;43.460;11.810;2024-02-15T00:42:03;5.15;;;2.63;;
42134;SDS011;28312;43.460;11.810;2024-02-15T00:46:11;4.65;;;2.60;;
42134;SDS011;28312;43.460;11.810;2024-02-15T00:50:16;5.32;;;3.17;;
42134;SDS011;28312;43.460;11.810;2024-02-15T00:54:20;6.50;;;3.58;;
42134;SDS011;28312;43.460;11.810;2024-02-15T00:58:25;5.97;;;3.05;;
42134;SDS011;28312;43.460;11.810;2024-02-15T01:02:29;5.18;;;2.90;;
42134;SDS011;28312;43.460;11.810;2024-02-15T01:06:34;3.50;;;2.45;;
42134;SDS011;28312;43.460;11.810;2024-02-15T01:10:38;3.72;;;2.67;;
42134;SDS011;28312;43.460;11.810;2024-02-15T01:14:42;5.72;;;3.63;;
42134;SDS011;28312;43.460;11.810;2024-02-15T01:18:45;6.47;;;4.90;;
42134;SDS011;28312;43.460;11.810;2024-02-15T01:22:49;7.45;;;4.05;;
42134;SDS011;28312;43.460;11.810;2024-02-15T01:26:54;6.05;;;3.97;;
42134;SDS011;28312;43.460;11.810;2024-02-15T01:30:58;4.03;;;2.95;;
42134;SDS011;28312;43.460;11.810;2024-02-15T01:35:03;6.65;;;3.80;;
42134;SDS011;28312;43.460;11.810;2024-02-15T01:39:07;4.88;;;2.50;;
42134;SDS011;28312;43.460;11.810;2024-02-15T01:43:11;3.40;;;2.45;;
42134;SDS011;28312;43.460;11.810;2024-02-15T01:47:16;3.90;;;2.53;;
42134;SDS011;28312;43.460;11.810;2024-02-15T01:51:22;3.78;;;2.60;;
42134;SDS011;28312;43.460;11.810;2024-02-15T01:55:28;4.90;;;3.00;;
42134;SDS011;28312;43.460;11.810;2024-02-15T01:59:31;4.50;;;2.75;;
42134;SDS011;28312;43.460;11.810;2024-02-15T02:03:35;5.35;;;2.97;;
42134;SDS011;28312;43.460;11.810;2024-02-15T02:07:39;6.47;;;3.03;;
42134;SDS011;28312;43.460;11.810;2024-02-15T02:11:46;3.78;;;2.25;;
42134;SDS011;28312;43.460;11.810;2024-02-15T02:15:52;4.18;;;2.63;;
42134;SDS011;28312;43.460;11.810;2024-02-15T02:19:55;2.75;;;1.80;;
42134;SDS011;28312;43.460;11.810;2024-02-15T02:24:00;2.88;;;1.73;;
42134;SDS011;28312;43.460;11.810;2024-02-15T02:28:10;3.40;;;2.30;;
42134;SDS011;28312;43.460;11.810;2024-02-15T02:32:14;3.45;;;2.10;;
42134;SDS011;28312;43.460;11.810;2024-02-15T02:36:18;3.42;;;2.15;;
42134;SDS011;28312;43.460;11.810;2024-02-15T02:40:22;3.60;;;2.25;;
42134;SDS011;28312;43.460;11.810;2024-02-15T02:44:26;4.07;;;1.77;;
42134;SDS011;28312;43.460;11.810;2024-02-15T02:48:29;2.50;;;1.70;;
42134;SDS011;28312;43.460;11.810;2024-02-15T02:52:33;4.32;;;2.95;;
42134;SDS011;28312;43.460;11.810;2024-02-15T02:56:36;3.42;;;1.75;;
42134;SDS011;28312;43.460;11.810;2024-02-15T03:00:40;3.08;;;1.90;;
42134;SDS011;28312;43.460;11.810;2024-02-15T03:04:43;3.72;;;2.05;;
42134;SDS011;28312;43.460;11.810;2024-02-15T03:08:47;2.47;;;1.73;;
42134;SDS011;28312;43.460;11.810;2024-02-15T03:12:50;3.78;;;2.10;;
42134;SDS011;28312;43.460;11.810;2024-02-15T03:16:55;5.00;;;2.13;;
42134;SDS011;28312;43.460;11.810;2024-02-15T03:20:59;4.05;;;2.15;;
42134;SDS011;28312;43.460;11.810;2024-02-15T03:25:02;2.63;;;1.80;;
42134;SDS011;28312;43.460;11.810;2024-02-15T03:29:10;5.72;;;2.20;;
42134;SDS011;28312;43.460;11.810;2024-02-15T03:33:14;2.42;;;1.40;;
42134;SDS011;28312;43.460;11.810;2024-02-15T03:37:18;4.38;;;2.40;;
42134;SDS011;28312;43.460;11.810;2024-02-15T03:41:23;2.90;;;1.85;;
42134;SDS011;28312;43.460;11.810;2024-02-15T03:45:34;2.45;;;1.58;;
42134;SDS011;28312;43.460;11.810;2024-02-15T03:49:37;2.50;;;1.55;;
42134;SDS011;28312;43.460;11.810;2024-02-15T03:53:42;2.20;;;1.50;;
42134;SDS011;28312;43.460;11.810;2024-02-15T03:57:46;3.10;;;1.60;;
42134;SDS011;28312;43.460;11.810;2024-02-15T04:01:49;2.00;;;1.42;;
42134;SDS011;28312;43.460;11.810;2024-02-15T04:05:54;2.67;;;1.92;;
42134;SDS011;28312;43.460;11.810;2024-02-15T04:09:57;3.45;;;1.77;;
42134;SDS011;28312;43.460;11.810;2024-02-15T04:14:04;2.53;;;1.77;;
42134;SDS011;28312;43.460;11.810;2024-02-15T04:18:08;2.20;;;1.50;;
42134;SDS011;28312;43.460;11.810;2024-02-15T04:22:13;4.72;;;2.50;;
42134;SDS011;28312;43.460;11.810;2024-02-15T04:26:19;3.33;;;1.85;;
42134;SDS011;28312;43.460;11.810;2024-02-15T04:30:23;3.05;;;1.85;;
42134;SDS011;28312;43.460;11.810;2024-02-15T04:34:28;2.20;;;1.20;;
42134;SDS011;28312;43.460;11.810;2024-02-15T04:38:32;5.43;;;2.67;;
42134;SDS011;28312;43.460;11.810;2024-02-15T04:42:37;3.22;;;1.80;;
42134;SDS011;28312;43.460;11.810;2024-02-15T04:46:44;3.42;;;1.80;;
42134;SDS011;28312;43.460;11.810;2024-02-15T04:50:49;4.28;;;2.63;;
42134;SDS011;28312;43.460;11.810;2024-02-15T04:54:54;3.08;;;1.95;;
42134;SDS011;28312;43.460;11.810;2024-02-15T04:58:57;3.92;;;1.77;;
42134;SDS011;28312;43.460;11.810;2024-02-15T05:03:02;2.28;;;1.40;;
42134;SDS011;28312;43.460;11.810;2024-02-15T05:07:06;2.72;;;1.63;;
42134;SDS011;28312;43.460;11.810;2024-02-15T05:11:11;3.08;;;2.00;;
42134;SDS011;28312;43.460;11.810;2024-02-15T05:15:19;2.83;;;1.90;;
42134;SDS011;28312;43.460;11.810;2024-02-15T05:19:26;2.47;;;1.83;;
42134;SDS011;28312;43.460;11.810;2024-02-15T05:23:30;2.70;;;1.90;;
42134;SDS011;28312;43.460;11.810;2024-02-15T05:27:34;3.47;;;2.38;;
42134;SDS011;28312;43.460;11.810;2024-02-15T05:31:38;3.53;;;1.73;;
42134;SDS011;28312;43.460;11.810;2024-02-15T05:35:42;3.20;;;1.83;;
42134;SDS011;28312;43.460;11.810;2024-02-15T05:39:49;2.05;;;1.40;;
42134;SDS011;28312;43.460;11.810;2024-02-15T05:43:56;2.40;;;1.60;;
42134;SDS011;28312;43.460;11.810;2024-02-15T05:48:00;2.13;;;1.33;;
42134;SDS011;28312;43.460;11.810;2024-02-15T05:52:06;3.73;;;2.07;;
42134;SDS011;28312;43.460;11.810;2024-02-15T05:56:11;2.38;;;1.70;;
42134;SDS011;28312;43.460;11.810;2024-02-15T06:00:16;6.00;;;1.65;;
42134;SDS011;28312;43.460;11.810;2024-02-15T06:04:25;2.85;;;1.50;;
42134;SDS011;28312;43.460;11.810;2024-02-15T06:08:29;4.57;;;2.45;;
42134;SDS011;28312;43.460;11.810;2024-02-15T06:12:32;3.35;;;2.20;;
42134;SDS011;28312;43.460;11.810;2024-02-15T06:16:43;3.45;;;2.70;;
42134;SDS011;28312;43.460;11.810;2024-02-15T06:20:47;2.92;;;1.92;;
42134;SDS011;28312;43.460;11.810;2024-02-15T06:24:57;2.50;;;1.80;;
42134;SDS011;28312;43.460;11.810;2024-02-15T06:29:01;2.63;;;1.50;;
42134;SDS011;28312;43.460;11.810;2024-02-15T06:33:23;2.25;;;1.73;;
42134;SDS011;28312;43.460;11.810;2024-02-15T06:37:46;2.25;;;1.45;;
42134;SDS011;28312;43.460;11.810;2024-02-15T06:42:25;2.45;;;1.52;;
42134;SDS011;28312;43.460;11.810;2024-02-15T06:46:29;1.85;;;1.23;;
42134;SDS011;28312;43.460;11.810;2024-02-15T06:50:33;3.75;;;1.70;;
42134;SDS011;28312;43.460;11.810;2024-02-15T06:54:40;3.20;;;2.45;;
42134;SDS011;28312;43.460;11.810;2024-02-15T06:58:45;2.72;;;1.50;;
42134;SDS011;28312;43.460;11.810;2024-02-15T07:02:48;2.95;;;1.60;;
42134;SDS011;28312;43.460;11.810;2024-02-15T07:06:53;2.45;;;1.75;;
42134;SDS011;28312;43.460;11.810;2024-02-15T07:10:58;5.15;;;1.70;;
42134;SDS011;28312;43.460;11.810;2024-02-15T07:15:01;2.80;;;2.08;;
42134;SDS011;28312;43.460;11.810;2024-02-15T07:19:06;3.83;;;2.78;;
42134;SDS011;28312;43.460;11.810;2024-02-15T07:23:12;3.70;;;3.08;;
42134;SDS011;28312;43.460;11.810;2024-02-15T07:27:15;5.28;;;3.53;;
42134;SDS011;28312;43.460;11.810;2024-02-15T07:31:20;5.07;;;3.42;;
42134;SDS011;28312;43.460;11.810;2024-02-15T07:35:24;7.15;;;5.10;;
42134;SDS011;28312;43.460;11.810;2024-02-15T07:39:28;8.13;;;7.32;;
42134;SDS011;28312;43.460;11.810;2024-02-15T07:43:32;4.95;;;4.45;;
42134;SDS011;28312;43.460;11.810;2024-02-15T07:47:36;4.63;;;3.75;;
42134;SDS011;28312;43.460;11.810;2024-02-15T07:51:39;4.82;;;3.17;;
42134;SDS011;28312;43.460;11.810;2024-02-15T07:55:43;3.38;;;2.47;;
42134;SDS011;28312;43.460;11.810;2024-02-15T07:59:48;22.30;;;16.88;;
42134;SDS011;28312;43.460;11.810;2024-02-15T08:03:52;12.93;;;10.02;;
42134;SDS011;28312;43.460;11.810;2024-02-15T08:07:57;21.55;;;18.35;;
42134;SDS011;28312;43.460;11.810;2024-02-15T08:12:01;15.30;;;12.75;;
42134;SDS011;28312;43.460;11.810;2024-02-15T08:16:05;12.05;;;8.73;;
42134;SDS011;28312;43.460;11.810;2024-02-15T08:20:10;8.88;;;7.22;;
42134;SDS011;28312;43.460;11.810;2024-02-15T08:24:14;6.25;;;4.93;;
42134;SDS011;28312;43.460;11.810;2024-02-15T08:28:19;7.60;;;4.82;;
42134;SDS011;28312;43.460;11.810;2024-02-15T08:32:27;6.28;;;4.47;;
42134;SDS011;28312;43.460;11.810;2024-02-15T08:36:31;4.18;;;3.45;;
42134;SDS011;28312;43.460;11.810;2024-02-15T08:40:35;5.28;;;3.55;;
42134;SDS011;28312;43.460;11.810;2024-02-15T08:44:38;4.38;;;2.72;;
42134;SDS011;28312;43.460;11.810;2024-02-15T08:48:42;4.10;;;3.00;;
42134;SDS011;28312;43.460;11.810;2024-02-15T08:52:47;3.33;;;2.30;;
42134;SDS011;28312;43.460;11.810;2024-02-15T08:56:50;2.95;;;2.08;;
42134;SDS011;28312;43.460;11.810;2024-02-15T09:00:54;3.30;;;2.10;;
42134;SDS011;28312;43.460;11.810;2024-02-15T09:05:01;6.22;;;3.40;;
42134;SDS011;28312;43.460;11.810;2024-02-15T09:09:05;2.97;;;2.03;;
42134;SDS011;28312;43.460;11.810;2024-02-15T09:13:09;3.00;;;1.77;;
42134;SDS011;28312;43.460;11.810;2024-02-15T09:17:13;5.25;;;2.92;;
42134;SDS011;28312;43.460;11.810;2024-02-15T09:21:18;3.28;;;2.47;;
42134;SDS011;28312;43.460;11.810;2024-02-15T09:25:22;5.03;;;3.15;;
42134;SDS011;28312;43.460;11.810;2024-02-15T09:29:27;4.03;;;2.90;;
42134;SDS011;28312;43.460;11.810;2024-02-15T09:33:35;5.93;;;4.93;;
42134;SDS011;28312;43.460;11.810;2024-02-15T09:37:46;4.55;;;4.03;;
42134;SDS011;28312;43.460;11.810;2024-02-15T09:41:53;4.93;;;3.80;;
42134;SDS011;28312;43.460;11.810;2024-02-15T09:46:01;5.30;;;3.90;;
42134;SDS011;28312;43.460;11.810;2024-02-15T09:50:13;6.65;;;5.13;;
42134;SDS011;28312;43.460;11.810;2024-02-15T09:54:18;6.03;;;4.93;;
42134;SDS011;28312;43.460;11.810;2024-02-15T09:58:25;6.38;;;5.00;;
42134;SDS011;28312;43.460;11.810;2024-02-15T10:02:31;7.03;;;5.18;;
42134;SDS011;28312;43.460;11.810;2024-02-15T10:06:35;6.07;;;4.97;;
42134;SDS011;28312;43.460;11.810;2024-02-15T10:10:39;6.85;;;4.85;;
42134;SDS011;28312;43.460;11.810;2024-02-15T10:14:47;4.32;;;3.78;;
42134;SDS011;28312;43.460;11.810;2024-02-15T10:19:02;6.18;;;3.70;;
42134;SDS011;28312;43.460;11.810;2024-02-15T10:23:13;6.50;;;3.78;;
42134;SDS011;28312;43.460;11.810;2024-02-15T10:27:23;3.88;;;2.83;;
42134;SDS011;28312;43.460;11.810;2024-02-15T10:31:26;4.50;;;3.53;;
42134;SDS011;28312;43.460;11.810;2024-02-15T10:35:31;6.45;;;4.45;;
42134;SDS011;28312;43.460;11.810;2024-02-15T10:39:38;4.35;;;3.42;;
42134;SDS011;28312;43.460;11.810;2024-02-15T10:43:42;6.00;;;4.35;;
42134;SDS011;28312;43.460;11.810;2024-02-15T10:47:49;6.22;;;3.20;;
42134;SDS011;28312;43.460;11.810;2024-02-15T10:51:57;6.25;;;2.97;;
42134;SDS011;28312;43.460;11.810;2024-02-15T11:00:14;4.70;;;3.28;;
42134;SDS011;28312;43.460;11.810;2024-02-15T11:04:24;4.78;;;3.22;;
42134;SDS011;28312;43.460;11.810;2024-02-15T11:08:35;6.22;;;3.85;;
42134;SDS011;28312;43.460;11.810;2024-02-15T11:12:40;5.13;;;3.45;;
42134;SDS011;28312;43.460;11.810;2024-02-15T11:16:50;4.53;;;3.03;;
42134;SDS011;28312;43.460;11.810;2024-02-15T11:20:54;4.18;;;3.00;;
42134;SDS011;28312;43.460;11.810;2024-02-15T11:24:58;3.28;;;2.65;;
42134;SDS011;28312;43.460;11.810;2024-02-15T11:29:07;5.68;;;3.25;;
42134;SDS011;28312;43.460;11.810;2024-02-15T11:46:31;3.85;;;2.40;;
42134;SDS011;28312;43.460;11.810;2024-02-15T11:50:37;3.88;;;2.45;;
42134;SDS011;28312;43.460;11.810;2024-02-15T11:54:42;3.72;;;2.60;;
42134;SDS011;28312;43.460;11.810;2024-02-15T11:59:00;3.33;;;2.15;;
42134;SDS011;28312;43.460;11.810;2024-02-15T12:03:05;2.92;;;1.73;;
42134;SDS011;28312;43.460;11.810;2024-02-15T12:07:28;3.35;;;2.15;;
42134;SDS011;28312;43.460;11.810;2024-02-15T12:11:57;4.75;;;2.55;;
42134;SDS011;28312;43.460;11.810;2024-02-15T12:16:20;3.05;;;1.75;;
42134;SDS011;28312;43.460;11.810;2024-02-15T12:20:42;2.60;;;1.60;;
42134;SDS011;28312;43.460;11.810;2024-02-15T12:24:57;2.53;;;1.58;;
42134;SDS011;28312;43.460;11.810;2024-02-15T12:29:02;2.73;;;1.43;;
42134;SDS011;28312;43.460;11.810;2024-02-15T12:33:11;2.20;;;1.30;;
42134;SDS011;28312;43.460;11.810;2024-02-15T12:37:23;2.50;;;1.42;;
42134;SDS011;28312;43.460;11.810;2024-02-15T12:41:29;3.67;;;2.10;;
42134;SDS011;28312;43.460;11.810;2024-02-15T12:45:35;2.92;;;1.75;;
42134;SDS011;28312;43.460;11.810;2024-02-15T12:49:40;4.50;;;1.60;;
42134;SDS011;28312;43.460;11.810;2024-02-15T12:53:44;2.90;;;1.77;;
42134;SDS011;28312;43.460;11.810;2024-02-15T12:57:49;3.00;;;1.70;;
42134;SDS011;28312;43.460;11.810;2024-02-15T13:01:54;3.42;;;2.60;;
42134;SDS011;28312;43.460;11.810;2024-02-15T13:05:58;3.25;;;2.38;;
42134;SDS011;28312;43.460;11.810;2024-02-15T13:10:01;2.80;;;1.70;;
42134;SDS011;28312;43.460;11.810;2024-02-15T13:14:06;3.40;;;1.67;;
42134;SDS011;28312;43.460;11.810;2024-02-15T13:18:10;4.10;;;1.65;;
42134;SDS011;28312;43.460;11.810;2024-02-15T13:22:17;3.17;;;1.73;;
42134;SDS011;28312;43.460;11.810;2024-02-15T13:26:21;3.00;;;1.40;;
42134;SDS011;28312;43.460;11.810;2024-02-15T13:30:28;2.42;;;1.40;;
42134;SDS011;28312;43.460;11.810;2024-02-15T13:34:31;2.22;;;1.42;;
42134;SDS011;28312;43.460;11.810;2024-02-15T13:38:36;3.67;;;1.90;;
42134;SDS011;28312;43.460;11.810;2024-02-15T13:42:46;2.35;;;1.60;;
42134;SDS011;28312;43.460;11.810;2024-02-15T13:46:57;4.15;;;2.60;;
42134;SDS011;28312;43.460;11.810;2024-02-15T13:51:00;2.78;;;1.98;;
42134;SDS011;28312;43.460;11.810;2024-02-15T13:55:04;3.00;;;1.88;;
42134;SDS011;28312;43.460;11.810;2024-02-15T13:59:07;4.10;;;1.80;;
42134;SDS011;28312;43.460;11.810;2024-02-15T14:03:11;2.85;;;1.63;;
42134;SDS011;28312;43.460;11.810;2024-02-15T14:07:18;3.30;;;1.85;;
42134;SDS011;28312;43.460;11.810;2024-02-15T14:11:22;2.95;;;2.00;;
42134;SDS011;28312;43.460;11.810;2024-02-15T14:15:25;3.10;;;2.10;;
42134;SDS011;28312;43.460;11.810;2024-02-15T14:19:29;3.85;;;2.03;;
42134;SDS011;28312;43.460;11.810;2024-02-15T14:23:34;4.40;;;2.47;;
42134;SDS011;28312;43.460;11.810;2024-02-15T14:27:39;3.85;;;2.20;;
42134;SDS011;28312;43.460;11.810;2024-02-15T14:31:43;4.60;;;2.72;;
42134;SDS011;28312;43.460;11.810;2024-02-15T14:36:04;3.38;;;2.35;;
42134;SDS011;28312;43.460;11.810;2024-02-15T14:40:08;3.35;;;2.17;;
42134;SDS011;28312;43.460;11.810;2024-02-15T14:44:20;4.18;;;2.10;;
42134;SDS011;28312;43.460;11.810;2024-02-15T14:48:23;3.42;;;1.85;;
42134;SDS011;28312;43.460;11.810;2024-02-15T14:52:28;3.20;;;2.20;;
42134;SDS011;28312;43.460;11.810;2024-02-15T14:56:32;3.92;;;2.08;;
42134;SDS011;28312;43.460;11.810;2024-02-15T15:04:45;2.45;;;1.35;;
42134;SDS011;28312;43.460;11.810;2024-02-15T15:09:20;3.95;;;1.60;;
42134;SDS011;28312;43.460;11.810;2024-02-15T15:13:42;2.88;;;1.73;;
42134;SDS011;28312;43.460;11.810;2024-02-15T15:17:46;3.08;;;2.00;;
42134;SDS011;28312;43.460;11.810;2024-02-15T15:21:49;2.08;;;1.30;;
42134;SDS011;28312;43.460;11.810;2024-02-15T15:25:53;3.03;;;1.63;;
42134;SDS011;28312;43.460;11.810;2024-02-15T15:30:00;2.30;;;1.60;;
42134;SDS011;28312;43.460;11.810;2024-02-15T15:34:03;2.05;;;1.30;;
42134;SDS011;28312;43.460;11.810;2024-02-15T15:38:07;3.47;;;1.67;;
42134;SDS011;28312;43.460;11.810;2024-02-15T15:42:11;5.45;;;1.65;;
42134;SDS011;28312;43.460;11.810;2024-02-15T15:46:15;3.13;;;1.88;;
42134;SDS011;28312;43.460;11.810;2024-02-15T15:50:19;3.17;;;1.80;;
42134;SDS011;28312;43.460;11.810;2024-02-15T15:54:23;1.95;;;1.23;;
42134;SDS011;28312;43.460;11.810;2024-02-15T15:58:26;2.40;;;1.30;;
42134;SDS011;28312;43.460;11.810;2024-02-15T16:02:30;2.22;;;1.40;;
42134;SDS011;28312;43.460;11.810;2024-02-15T16:06:38;2.22;;;1.33;;
42134;SDS011;28312;43.460;11.810;2024-02-15T16:10:43;1.92;;;1.17;;
42134;SDS011;28312;43.460;11.810;2024-02-15T16:14:49;3.58;;;1.52;;
42134;SDS011;28312;43.460;11.810;2024-02-15T16:18:52;4.95;;;1.50;;
42134;SDS011;28312;43.460;11.810;2024-02-15T16:22:56;2.58;;;1.50;;
42134;SDS011;28312;43.460;11.810;2024-02-15T16:27:00;2.78;;;1.80;;
42134;SDS011;28312;43.460;11.810;2024-02-15T16:31:08;3.72;;;2.03;;
42134;SDS011;28312;43.460;11.810;2024-02-15T16:35:12;3.55;;;2.22;;
42134;SDS011;28312;43.460;11.810;2024-02-15T16:39:17;4.97;;;3.90;;
42134;SDS011;28312;43.460;11.810;2024-02-15T16:43:25;5.90;;;3.63;;
42134;SDS011;28312;43.460;11.810;2024-02-15T16:47:28;4.68;;;3.05;;
42134;SDS011;28312;43.460;11.810;2024-02-15T16:51:32;5.95;;;3.60;;
42134;SDS011;28312;43.460;11.810;2024-02-15T16:55:37;4.88;;;3.38;;
42134;SDS011;28312;43.460;11.810;2024-02-15T16:59:41;4.40;;;3.08;;
42134;SDS011;28312;43.460;11.810;2024-02-15T17:03:45;4.93;;;3.08;;
42134;SDS011;28312;43.460;11.810;2024-02-15T17:07:48;5.32;;;3.55;;
42134;SDS011;28312;43.460;11.810;2024-02-15T17:11:52;4.65;;;3.00;;
42134;SDS011;28312;43.460;11.810;2024-02-15T17:15:57;7.55;;;3.75;;
42134;SDS011;28312;43.460;11.810;2024-02-15T17:20:00;4.25;;;2.90;;
42134;SDS011;28312;43.460;11.810;2024-02-15T17:24:05;5.88;;;3.10;;
42134;SDS011;28312;43.460;11.810;2024-02-15T17:28:09;5.03;;;3.40;;
42134;SDS011;28312;43.460;11.810;2024-02-15T17:32:13;5.28;;;3.70;;
42134;SDS011;28312;43.460;11.810;2024-02-15T17:36:16;6.45;;;3.42;;
42134;SDS011;28312;43.460;11.810;2024-02-15T17:40:20;4.80;;;3.63;;
42134;SDS011;28312;43.460;11.810;2024-02-15T17:44:24;5.35;;;3.08;;
42134;SDS011;28312;43.460;11.810;2024-02-15T17:48:27;3.97;;;2.83;;
42134;SDS011;28312;43.460;11.810;2024-02-15T17:52:32;4.28;;;3.60;;
42134;SDS011;28312;43.460;11.810;2024-02-15T17:56:35;5.45;;;3.97;;
42134;SDS011;28312;43.460;11.810;2024-02-15T18:00:41;11.32;;;9.05;;
42134;SDS011;28312;43.460;11.810;2024-02-15T18:04:45;5.75;;;4.22;;
42134;SDS011;28312;43.460;11.810;2024-02-15T18:08:48;5.65;;;4.10;;
42134;SDS011;28312;43.460;11.810;2024-02-15T18:12:53;4.18;;;3.58;;
42134;SDS011;28312;43.460;11.810;2024-02-15T18:16:56;8.15;;;4.65;;
42134;SDS011;28312;43.460;11.810;2024-02-15T18:21:00;4.70;;;3.45;;
42134;SDS011;28312;43.460;11.810;2024-02-15T18:25:04;5.93;;;3.88;;
42134;SDS011;28312;43.460;11.810;2024-02-15T18:29:10;6.22;;;4.47;;
42134;SDS011;28312;43.460;11.810;2024-02-15T18:33:15;6.25;;;4.60;;
42134;SDS011;28312;43.460;11.810;2024-02-15T18:37:20;6.78;;;4.03;;
42134;SDS011;28312;43.460;11.810;2024-02-15T18:41:24;5.88;;;3.85;;
42134;SDS011;28312;43.460;11.810;2024-02-15T18:45:27;4.00;;;3.28;;
42134;SDS011;28312;43.460;11.810;2024-02-15T18:49:35;7.33;;;3.93;;
42134;SDS011;28312;43.460;11.810;2024-02-15T18:53:47;5.05;;;4.00;;
42134;SDS011;28312;43.460;11.810;2024-02-15T18:57:51;10.07;;;3.83;;
42134;SDS011;28312;43.460;11.810;2024-02-15T19:01:56;5.85;;;3.83;;
42134;SDS011;28312;43.460;11.810;2024-02-15T19:06:04;6.05;;;3.92;;
42134;SDS011;28312;43.460;11.810;2024-02-15T19:10:08;5.40;;;3.65;;
42134;SDS011;28312;43.460;11.810;2024-02-15T19:14:12;7.20;;;3.65;;
42134;SDS011;28312;43.460;11.810;2024-02-15T19:18:16;7.50;;;4.53;;
42134;SDS011;28312;43.460;11.810;2024-02-15T19:22:19;5.70;;;3.97;;
42134;SDS011;28312;43.460;11.810;2024-02-15T19:26:23;4.78;;;3.38;;
42134;SDS011;28312;43.460;11.810;2024-02-15T19:30:27;7.10;;;4.15;;
42134;SDS011;28312;43.460;11.810;2024-02-15T19:34:31;4.78;;;3.83;;
42134;SDS011;28312;43.460;11.810;2024-02-15T19:38:34;5.50;;;3.70;;
42134;SDS011;28312;43.460;11.810;2024-02-15T19:42:42;6.43;;;4.30;;
42134;SDS011;28312;43.460;11.810;2024-02-15T19:46:45;5.55;;;4.07;;
42134;SDS011;28312;43.460;11.810;2024-02-15T19:50:49;6.03;;;4.03;;
42134;SDS011;28312;43.460;11.810;2024-02-15T19:54:53;7.50;;;4.38;;
42134;SDS011;28312;43.460;11.810;2024-02-15T19:58:57;4.80;;;3.42;;
42134;SDS011;28312;43.460;11.810;2024-02-15T20:03:01;5.10;;;3.90;;
42134;SDS011;28312;43.460;11.810;2024-02-15T20:07:07;5.85;;;3.58;;
42134;SDS011;28312;43.460;11.810;2024-02-15T20:11:11;6.68;;;4.78;;
42134;SDS011;28312;43.460;11.810;2024-02-15T20:15:15;6.05;;;4.22;;
42134;SDS011;28312;43.460;11.810;2024-02-15T20:19:19;7.05;;;4.22;;
42134;SDS011;28312;43.460;11.810;2024-02-15T20:23:23;7.63;;;4.20;;
42134;SDS011;28312;43.460;11.810;2024-02-15T20:27:26;6.75;;;5.03;;
42134;SDS011;28312;43.460;11.810;2024-02-15T20:31:34;6.75;;;4.55;;
42134;SDS011;28312;43.460;11.810;2024-02-15T20:35:38;6.20;;;4.35;;
42134;SDS011;28312;43.460;11.810;2024-02-15T20:39:42;4.57;;;4.03;;
42134;SDS011;28312;43.460;11.810;2024-02-15T20:43:47;7.20;;;4.95;;
42134;SDS011;28312;43.460;11.810;2024-02-15T20:51:57;6.22;;;4.25;;
42134;SDS011;28312;43.460;11.810;2024-02-15T20:56:01;5.88;;;4.22;;
42134;SDS011;28312;43.460;11.810;2024-02-15T21:00:05;6.30;;;3.60;;
42134;SDS011;28312;43.460;11.810;2024-02-15T21:04:17;5.65;;;3.97;;
42134;SDS011;28312;43.460;11.810;2024-02-15T21:08:20;5.20;;;3.60;;
42134;SDS011;28312;43.460;11.810;2024-02-15T21:12:24;7.15;;;4.43;;
42134;SDS011;28312;43.460;11.810;2024-02-15T21:16:28;7.28;;;4.90;;
42134;SDS011;28312;43.460;11.810;2024-02-15T21:24:38;4.63;;;3.45;;
42134;SDS011;28312;43.460;11.810;2024-02-15T21:28:44;4.72;;;3.63;;
42134;SDS011;28312;43.460;11.810;2024-02-15T21:32:49;5.03;;;3.67;;
42134;SDS011;28312;43.460;11.810;2024-02-15T21:36:55;4.60;;;3.63;;
42134;SDS011;28312;43.460;11.810;2024-02-15T21:40:58;6.38;;;3.75;;
42134;SDS011;28312;43.460;11.810;2024-02-15T21:45:02;4.97;;;3.80;;
42134;SDS011;28312;43.460;11.810;2024-02-15T21:49:07;5.82;;;3.63;;
42134;SDS011;28312;43.460;11.810;2024-02-15T21:53:11;6.10;;;4.10;;
42134;SDS011;28312;43.460;11.810;2024-02-15T21:57:15;6.07;;;3.97;;
42134;SDS011;28312;43.460;11.810;2024-02-15T22:01:18;6.80;;;4.20;;
42134;SDS011;28312;43.460;11.810;2024-02-15T22:05:23;4.43;;;3.80;;
42134;SDS011;28312;43.460;11.810;2024-02-15T22:09:26;6.80;;;5.45;;
42134;SDS011;28312;43.460;11.810;2024-02-15T22:13:30;6.60;;;4.45;;
42134;SDS011;28312;43.460;11.810;2024-02-15T22:17:35;5.25;;;3.28;;
42134;SDS011;28312;43.460;11.810;2024-02-15T22:21:39;6.78;;;3.83;;
42134;SDS011;28312;43.460;11.810;2024-02-15T22:25:42;7.60;;;5.13;;
42134;SDS011;28312;43.460;11.810;2024-02-15T22:29:46;5.97;;;4.20;;
42134;SDS011;28312;43.460;11.810;2024-02-15T22:33:49;4.20;;;3.45;;
42134;SDS011;28312;43.460;11.810;2024-02-15T22:37:54;6.30;;;4.22;;
42134;SDS011;28312;43.460;11.810;2024-02-15T22:41:58;7.32;;;4.50;;
42134;SDS011;28312;43.460;11.810;2024-02-15T22:46:02;6.47;;;3.72;;
42134;SDS011;28312;43.460;11.810;2024-02-15T22:50:06;3.88;;;3.28;;
42134;SDS011;28312;43.460;11.810;2024-02-15T22:54:11;6.90;;;4.80;;
42134;SDS011;28312;43.460;11.810;2024-02-15T22:58:15;6.45;;;4.22;;
42134;SDS011;28312;43.460;11.810;2024-02-15T23:02:18;5.78;;;4.10;;
42134;SDS011;28312;43.460;11.810;2024-02-15T23:06:22;6.65;;;5.20;;
42134;SDS011;28312;43.460;11.810;2024-02-15T23:10:26;8.85;;;6.57;;
42134;SDS011;28312;43.460;11.810;2024-02-15T23:14:32;6.20;;;5.43;;
42134;SDS011;28312;43.460;11.810;2024-02-15T23:18:36;7.57;;;5.80;;
42134;SDS011;28312;43.460;11.810;2024-02-15T23:22:41;6.18;;;4.75;;
42134;SDS011;28312;43.460;11.810;2024-02-15T23:26:45;5.47;;;4.68;;
42134;SDS011;28312;43.460;11.810;2024-02-15T23:30:48;7.38;;;4.97;;
42134;SDS011;28312;43.460;11.810;2024-02-15T23:34:52;7.18;;;4.95;;
42134;SDS011;28312;43.460;11.810;2024-02-15T23:38:57;5.18;;;3.88;;
42134;SDS011;28312;43.460;11.810;2024-02-15T23:43:19;5.55;;;4.13;;
42134;SDS011;28312;43.460;11.810;2024-02-15T23:47:23;6.18;;;4.78;;
42134;SDS011;28312;43.460;11.810;2024-02-15T23:51:27;7.38;;;5.28;;
42134;SDS011;28312;43.460;11.810;2024-02-15T23:55:31;4.88;;;3.75;;
42134;SDS011;28312;43.460;11.810;2024-02-15T23:59:35;5.85;;;5.10;;
